createdAt,value
2022-09-26T00:00:53.826Z,7.35
2022-09-26T00:03:21.190Z,7.03
2022-09-26T00:05:48.492Z,10.02
2022-09-26T00:08:15.730Z,9.10
2022-09-26T00:10:42.944Z,9.77
2022-09-26T00:13:10.151Z,7.72
2022-09-26T00:15:37.340Z,4.22
2022-09-26T00:18:06.683Z,8.25
2022-09-26T00:20:33.845Z,10.15
2022-09-26T00:23:01.044Z,3.78
2022-09-26T00:25:28.265Z,4.57
2022-09-26T00:27:55.414Z,5.35
2022-09-26T00:30:23.570Z,7.80
2022-09-26T00:32:50.986Z,4.85
2022-09-26T00:35:18.239Z,6.70
2022-09-26T00:37:45.401Z,3.45
2022-09-26T00:40:12.914Z,7.70
2022-09-26T00:42:40.113Z,4.40
2022-09-26T00:45:07.361Z,8.18
2022-09-26T00:47:34.597Z,14.13
2022-09-26T00:50:01.842Z,4.13
2022-09-26T00:52:29.017Z,7.93
2022-09-26T00:54:56.284Z,4.82
2022-09-26T00:57:23.469Z,10.77
2022-09-26T00:59:50.733Z,4.55
2022-09-26T01:02:18.052Z,6.70
2022-09-26T01:04:45.585Z,6.20
2022-09-26T01:07:12.887Z,6.80
2022-09-26T01:09:40.163Z,5.53
2022-09-26T01:12:08.770Z,4.63
2022-09-26T01:14:36.151Z,6.90
2022-09-26T01:17:03.645Z,7.28
2022-09-26T01:19:30.926Z,5.45
2022-09-26T01:21:58.145Z,4.25
2022-09-26T01:24:25.533Z,5.97
2022-09-26T01:26:52.745Z,4.50
2022-09-26T01:29:20.025Z,5.55
2022-09-26T01:32:07.263Z,10.65
2022-09-26T01:34:35.534Z,2.45
2022-09-26T01:37:02.797Z,8.90
2022-09-26T01:39:30.109Z,8.35
2022-09-26T01:41:59.194Z,5.35
2022-09-26T01:44:26.354Z,10.95
2022-09-26T01:46:53.670Z,2.60
2022-09-26T01:49:20.855Z,9.13
2022-09-26T01:51:48.145Z,3.13
2022-09-26T01:54:15.529Z,5.13
2022-09-26T01:56:42.825Z,3.83
2022-09-26T01:59:10.009Z,3.13
2022-09-26T02:01:37.502Z,6.65
2022-09-26T02:04:04.768Z,4.78
2022-09-26T02:06:33.879Z,4.70
2022-09-26T02:09:01.163Z,6.15
2022-09-26T02:11:28.424Z,3.10
2022-09-26T02:13:58.109Z,6.45
2022-09-26T02:16:26.123Z,5.40
2022-09-26T02:18:53.374Z,7.25
2022-09-26T02:21:20.633Z,8.98
2022-09-26T02:23:49.180Z,7.40
2022-09-26T02:26:16.488Z,5.00
2022-09-26T02:28:43.673Z,9.95
2022-09-26T02:31:14.667Z,8.13
2022-09-26T02:33:41.930Z,8.50
2022-09-26T02:36:10.370Z,3.90
2022-09-26T02:38:38.711Z,9.93
2022-09-26T02:41:29.147Z,8.98
2022-09-26T02:43:56.709Z,9.93
2022-09-26T02:46:25.077Z,2.50
2022-09-26T02:48:52.401Z,10.60
2022-09-26T02:51:21.234Z,3.40
2022-09-26T02:53:49.092Z,5.70
2022-09-26T02:56:17.444Z,5.55
2022-09-26T02:58:45.794Z,3.75
2022-09-26T03:01:13.528Z,3.78
2022-09-26T03:03:40.926Z,7.78
2022-09-26T03:06:08.212Z,10.95
2022-09-26T03:08:35.644Z,8.13
2022-09-26T03:11:04.901Z,6.78
2022-09-26T03:13:32.233Z,5.72
2022-09-26T03:15:59.628Z,7.60
2022-09-26T03:18:28.464Z,4.20
2022-09-26T03:20:56.159Z,7.13
2022-09-26T03:23:24.681Z,7.43
2022-09-26T03:25:52.100Z,3.33
2022-09-26T03:28:19.600Z,5.13
2022-09-26T03:30:46.883Z,8.45
2022-09-26T03:33:23.703Z,7.72
2022-09-26T03:35:51.012Z,4.57
2022-09-26T03:38:20.515Z,4.28
2022-09-26T03:41:00.401Z,3.63
2022-09-26T03:43:46.507Z,7.07
2022-09-26T03:46:15.935Z,5.05
2022-09-26T03:48:43.615Z,6.95
2022-09-26T03:51:10.858Z,12.10
2022-09-26T03:53:38.455Z,13.02
2022-09-26T03:56:08.315Z,7.60
2022-09-26T03:58:35.617Z,3.28
2022-09-26T04:01:03.008Z,8.57
2022-09-26T04:03:30.249Z,9.95
2022-09-26T04:05:57.505Z,6.05
2022-09-26T04:08:24.680Z,5.10
2022-09-26T04:10:51.978Z,8.25
2022-09-26T04:13:46.724Z,12.27
2022-09-26T04:16:06.605Z,5.72
2022-09-26T04:18:34.037Z,5.03
2022-09-26T04:21:01.739Z,7.53
2022-09-26T04:23:28.977Z,7.10
2022-09-26T04:25:56.280Z,3.40
2022-09-26T04:28:23.474Z,9.55
2022-09-26T04:30:50.805Z,6.03
2022-09-26T04:33:19.688Z,4.53
2022-09-26T04:36:01.788Z,6.45
2022-09-26T04:38:32.592Z,5.88
2022-09-26T04:41:00.169Z,3.80
2022-09-26T04:43:27.857Z,4.85
2022-09-26T04:45:55.292Z,3.85
2022-09-26T04:48:23.471Z,3.47
2022-09-26T04:50:58.786Z,4.38
2022-09-26T04:53:26.650Z,5.05
2022-09-26T04:56:10.744Z,3.17
2022-09-26T04:58:38.920Z,4.72
2022-09-26T05:01:06.230Z,4.97
2022-09-26T05:03:45.275Z,4.15
2022-09-26T05:06:13.006Z,2.80
2022-09-26T05:08:41.233Z,2.78
2022-09-26T05:11:08.636Z,2.13
2022-09-26T05:13:36.260Z,6.38
2022-09-26T05:16:04.007Z,4.57
2022-09-26T05:18:31.697Z,4.60
2022-09-26T05:21:00.126Z,6.55
2022-09-26T05:23:46.624Z,1.45
2022-09-26T05:26:20.732Z,3.55
2022-09-26T05:28:48.623Z,3.35
2022-09-26T05:31:16.444Z,5.43
2022-09-26T05:33:44.593Z,2.17
2022-09-26T05:36:11.899Z,6.05
2022-09-26T05:38:39.456Z,6.00
2022-09-26T05:41:07.133Z,2.42
2022-09-26T05:43:35.063Z,6.63
2022-09-26T05:46:05.433Z,3.88
2022-09-26T05:48:37.628Z,4.63
2022-09-26T05:51:09.927Z,7.55
2022-09-26T05:53:39.090Z,6.80
2022-09-26T05:56:06.454Z,7.60
2022-09-26T05:58:48.110Z,6.95
2022-09-26T06:01:15.409Z,4.70
2022-09-26T06:03:42.762Z,2.10
2022-09-26T06:06:13.895Z,4.45
2022-09-26T06:08:41.974Z,4.95
2022-09-26T06:11:35.320Z,4.55
2022-09-26T06:14:02.901Z,3.58
2022-09-26T06:16:30.379Z,2.30
2022-09-26T06:18:58.455Z,6.13
2022-09-26T06:21:25.671Z,1.80
2022-09-26T06:23:57.695Z,2.35
2022-09-26T06:26:26.219Z,3.53
2022-09-26T06:28:54.000Z,3.05
2022-09-26T06:31:23.177Z,1.73
2022-09-26T06:34:08.794Z,3.28
2022-09-26T06:36:58.925Z,4.22
2022-09-26T06:39:35.920Z,3.90
2022-09-26T06:42:08.445Z,3.05
2022-09-26T06:44:49.680Z,4.18
2022-09-26T06:47:27.240Z,3.80
2022-09-26T06:50:17.890Z,1.40
2022-09-26T06:52:51.261Z,2.65
2022-09-26T06:55:19.401Z,3.45
2022-09-26T06:57:46.599Z,2.53
2022-09-26T07:00:16.003Z,5.53
2022-09-26T07:03:09.297Z,1.90
2022-09-26T07:06:05.677Z,4.32
2022-09-26T07:09:00.328Z,2.90
2022-09-26T07:11:38.370Z,1.27
2022-09-26T07:14:17.060Z,5.18
2022-09-26T07:16:53.751Z,3.63
2022-09-26T07:19:39.651Z,3.25
2022-09-26T07:22:09.899Z,2.70
2022-09-26T07:24:52.107Z,4.18
2022-09-26T07:27:19.410Z,2.38
2022-09-26T07:29:48.843Z,1.55
2022-09-26T07:32:18.707Z,5.25
2022-09-26T07:34:55.299Z,1.42
2022-09-26T07:37:23.473Z,5.95
2022-09-26T07:39:54.098Z,3.28
2022-09-26T07:42:22.792Z,2.75
2022-09-26T07:45:20.916Z,2.85
2022-09-26T07:47:56.791Z,2.03
2022-09-26T07:50:54.197Z,5.67
2022-09-26T07:53:34.102Z,5.53
2022-09-26T07:56:24.329Z,5.55
2022-09-26T07:59:20.830Z,5.38
2022-09-26T08:02:17.350Z,5.50
2022-09-26T08:04:44.798Z,6.07
2022-09-26T08:07:12.546Z,5.68
2022-09-26T08:09:47.151Z,3.75
2022-09-26T08:12:32.693Z,8.05
2022-09-26T08:15:09.794Z,9.23
2022-09-26T08:17:41.369Z,4.82
2022-09-26T08:20:09.577Z,4.13
2022-09-26T08:22:37.506Z,6.63
2022-09-26T08:25:07.040Z,12.50
2022-09-26T08:27:43.834Z,11.82
2022-09-26T08:30:12.647Z,7.20
2022-09-26T08:32:40.062Z,9.00
2022-09-26T08:35:07.387Z,15.27
2022-09-26T08:37:51.252Z,8.63
2022-09-26T08:40:47.884Z,11.27
2022-09-26T08:43:33.808Z,12.27
2022-09-26T08:46:31.953Z,7.28
2022-09-26T08:49:31.682Z,16.73
2022-09-26T08:51:59.012Z,11.60
2022-09-26T08:54:27.535Z,19.20
2022-09-26T08:56:55.051Z,18.85
2022-09-26T08:59:23.326Z,15.20
2022-09-26T09:01:51.895Z,14.30
2022-09-26T09:04:27.050Z,14.48
2022-09-26T09:06:54.477Z,15.45
2022-09-26T09:09:21.823Z,17.23
2022-09-26T09:12:07.769Z,17.95
2022-09-26T09:14:35.300Z,13.30
2022-09-26T09:17:21.255Z,24.02
2022-09-26T09:19:52.534Z,17.55
2022-09-26T09:22:34.951Z,22.10
2022-09-26T09:25:18.040Z,26.13
2022-09-26T09:27:53.450Z,19.10
2022-09-26T09:30:23.004Z,20.23
2022-09-26T09:32:56.050Z,30.48
2022-09-26T09:35:46.176Z,30.17
2022-09-26T09:38:38.507Z,29.38
2022-09-26T09:41:13.052Z,23.95
2022-09-26T09:43:40.493Z,20.48
2022-09-26T09:46:07.819Z,24.85
2022-09-26T09:48:35.150Z,28.95
2022-09-26T09:51:02.509Z,28.23
2022-09-26T09:53:30.031Z,27.30
2022-09-26T09:55:57.359Z,31.17
2022-09-26T09:58:24.611Z,31.95
2022-09-26T10:00:52.290Z,33.55
2022-09-26T10:03:26.823Z,24.00
2022-09-26T10:05:55.432Z,34.78
2022-09-26T10:08:31.455Z,30.45
2022-09-26T10:11:23.068Z,29.33
2022-09-26T10:14:01.304Z,31.58
2022-09-26T10:16:48.559Z,29.17
2022-09-26T10:19:18.287Z,21.15
2022-09-26T10:21:45.530Z,35.75
2022-09-26T10:24:13.425Z,32.13
2022-09-26T10:26:49.292Z,39.95
2022-09-26T10:29:39.392Z,36.47
2022-09-26T10:32:07.877Z,41.08
2022-09-26T10:34:35.117Z,32.65
2022-09-26T10:37:02.316Z,36.10
2022-09-26T10:39:49.167Z,29.73
2022-09-26T10:42:16.657Z,26.02
2022-09-26T10:44:43.967Z,31.27
2022-09-26T10:47:19.966Z,34.45
2022-09-26T10:50:05.424Z,33.78
2022-09-26T10:52:51.635Z,27.42
2022-09-26T10:55:20.256Z,40.22
2022-09-26T10:57:48.097Z,27.50
2022-09-26T11:00:17.149Z,25.30
2022-09-26T11:02:46.756Z,27.95
2022-09-26T11:05:32.934Z,38.53
2022-09-26T11:08:15.088Z,25.23
2022-09-26T11:11:11.362Z,20.23
2022-09-26T11:13:40.949Z,20.02
2022-09-26T11:16:12.110Z,21.35
2022-09-26T11:18:41.992Z,25.85
2022-09-26T11:21:27.475Z,23.77
2022-09-26T11:23:56.020Z,19.35
2022-09-26T11:26:24.568Z,22.90
2022-09-26T11:28:52.197Z,21.23
2022-09-26T11:31:31.654Z,13.15
2022-09-26T11:34:21.874Z,14.85
2022-09-26T11:36:55.871Z,16.13
2022-09-26T11:39:23.205Z,28.02
2022-09-26T11:41:50.459Z,21.40
2022-09-26T11:44:19.345Z,23.35
2022-09-26T11:47:18.993Z,16.70
2022-09-26T11:49:51.730Z,17.20
2022-09-26T11:52:29.707Z,19.27
2022-09-26T11:54:58.579Z,20.55
2022-09-26T11:57:25.929Z,19.92
2022-09-26T11:59:53.188Z,20.73
2022-09-26T12:02:20.583Z,15.98
2022-09-26T12:04:48.078Z,16.98
2022-09-26T12:07:16.370Z,12.95
2022-09-26T12:09:45.304Z,17.70
2022-09-26T12:12:14.437Z,17.90
2022-09-26T12:14:41.923Z,16.23
2022-09-26T12:17:09.228Z,16.13
2022-09-26T12:19:36.504Z,19.10
2022-09-26T12:22:22.659Z,17.05
2022-09-26T12:24:50.339Z,19.13
2022-09-26T12:27:17.640Z,16.38
2022-09-26T12:29:45.687Z,14.48
2022-09-26T12:32:14.780Z,16.88
2022-09-26T12:34:42.288Z,11.07
2022-09-26T12:37:10.103Z,8.20
2022-09-26T12:39:37.674Z,14.55
2022-09-26T12:42:04.938Z,8.70
2022-09-26T12:44:32.504Z,13.85
2022-09-26T12:47:02.710Z,8.23
2022-09-26T12:49:30.377Z,7.55
2022-09-26T12:51:58.605Z,5.70
2022-09-26T12:54:25.847Z,3.72
2022-09-26T12:56:54.744Z,4.95
2022-09-26T12:59:22.937Z,5.10
2022-09-26T13:01:50.581Z,12.38
2022-09-26T13:04:18.094Z,5.43
2022-09-26T13:07:02.129Z,4.72
2022-09-26T13:09:32.935Z,6.93
2022-09-26T13:12:02.567Z,5.40
2022-09-26T13:14:29.790Z,6.75
2022-09-26T13:16:57.174Z,10.55
2022-09-26T13:19:24.550Z,6.70
2022-09-26T13:21:51.767Z,11.85
2022-09-26T13:24:19.273Z,9.25
2022-09-26T13:26:47.000Z,9.23
2022-09-26T13:29:18.566Z,9.48
2022-09-26T13:31:45.998Z,7.82
2022-09-26T13:34:13.522Z,4.38
2022-09-26T13:36:42.354Z,9.63
2022-09-26T13:39:09.608Z,7.03
2022-09-26T13:41:36.961Z,7.82
2022-09-26T13:44:06.239Z,12.27
2022-09-26T13:46:34.651Z,10.50
2022-09-26T13:49:02.095Z,12.80
2022-09-26T13:51:29.301Z,6.50
2022-09-26T13:53:57.671Z,9.05
2022-09-26T13:56:30.502Z,7.03
2022-09-26T13:58:57.729Z,12.05
2022-09-26T14:01:25.013Z,14.07
2022-09-26T14:03:52.450Z,10.27
2022-09-26T14:06:22.850Z,11.77
2022-09-26T14:09:09.225Z,16.73
2022-09-26T14:11:41.007Z,9.40
2022-09-26T14:14:08.285Z,15.88
2022-09-26T14:16:35.491Z,9.05
2022-09-26T14:19:04.173Z,7.93
2022-09-26T14:21:33.011Z,10.75
2022-09-26T14:24:01.570Z,9.13
2022-09-26T14:26:29.066Z,8.13
2022-09-26T14:28:56.461Z,8.13
2022-09-26T14:31:23.804Z,8.15
2022-09-26T14:33:51.138Z,14.70
2022-09-26T14:36:18.616Z,10.80
2022-09-26T14:38:45.907Z,14.38
2022-09-26T14:41:13.221Z,17.63
2022-09-26T14:43:40.510Z,13.32
2022-09-26T14:46:08.527Z,11.25
2022-09-26T14:48:36.225Z,14.75
2022-09-26T14:51:03.615Z,13.77
2022-09-26T14:53:31.143Z,18.80
2022-09-26T14:55:59.216Z,10.00
2022-09-26T14:58:26.589Z,7.00
2022-09-26T15:00:54.008Z,15.68
2022-09-26T15:03:21.421Z,12.23
2022-09-26T15:05:49.294Z,15.18
2022-09-26T15:08:16.575Z,14.30
2022-09-26T15:10:43.791Z,9.80
2022-09-26T15:13:11.400Z,8.38
2022-09-26T15:15:38.829Z,7.75
2022-09-26T15:18:08.142Z,9.90
2022-09-26T15:20:36.512Z,7.22
2022-09-26T15:23:03.887Z,10.13
2022-09-26T15:25:31.114Z,11.80
2022-09-26T15:27:58.365Z,13.32
2022-09-26T15:30:29.406Z,8.30
2022-09-26T15:32:57.170Z,10.20
2022-09-26T15:35:26.788Z,9.88
2022-09-26T15:37:54.033Z,10.38
2022-09-26T15:40:21.638Z,10.02
2022-09-26T15:42:58.465Z,17.25
2022-09-26T15:45:27.710Z,9.55
2022-09-26T15:47:55.320Z,8.20
2022-09-26T15:50:24.262Z,11.40
2022-09-26T15:52:51.628Z,13.13
2022-09-26T15:55:19.306Z,12.55
2022-09-26T15:57:47.024Z,11.57
2022-09-26T16:00:14.304Z,13.15
2022-09-26T16:02:41.627Z,13.75
2022-09-26T16:05:12.917Z,14.45
2022-09-26T16:07:41.417Z,12.38
2022-09-26T16:10:09.770Z,11.80
2022-09-26T16:12:36.952Z,8.77
2022-09-26T16:15:06.931Z,11.70
2022-09-26T16:17:37.576Z,7.28
2022-09-26T16:20:04.802Z,6.28
2022-09-26T16:22:36.882Z,15.55
2022-09-26T16:25:04.310Z,12.60
2022-09-26T16:27:31.846Z,7.45
2022-09-26T16:30:04.723Z,15.80
2022-09-26T16:32:33.088Z,10.35
2022-09-26T16:35:00.549Z,18.10
2022-09-26T16:37:27.911Z,22.50
2022-09-26T16:39:55.106Z,20.58
2022-09-26T16:42:22.469Z,13.45
2022-09-26T16:44:49.805Z,11.48
2022-09-26T16:47:17.072Z,14.35
2022-09-26T16:49:46.208Z,8.68
2022-09-26T16:52:14.833Z,12.73
2022-09-26T16:54:42.056Z,10.40
2022-09-26T16:57:09.317Z,7.43
2022-09-26T16:59:36.512Z,5.93
2022-09-26T17:02:05.336Z,10.55
2022-09-26T17:04:32.817Z,6.45
2022-09-26T17:07:00.152Z,4.38
2022-09-26T17:09:29.720Z,6.85
2022-09-26T17:11:57.023Z,8.60
2022-09-26T17:14:24.171Z,4.05
2022-09-26T17:16:55.170Z,10.98
2022-09-26T17:19:23.325Z,7.50
2022-09-26T17:21:51.199Z,7.40
2022-09-26T17:24:18.449Z,8.18
2022-09-26T17:26:45.632Z,1.83
2022-09-26T17:29:13.107Z,4.60
2022-09-26T17:31:40.441Z,5.30
2022-09-26T17:34:07.813Z,7.28
2022-09-26T17:36:35.068Z,4.78
2022-09-26T17:39:02.790Z,6.10
2022-09-26T17:41:32.673Z,3.40
2022-09-26T17:44:01.023Z,9.73
2022-09-26T17:46:28.647Z,7.20
2022-09-26T17:48:56.456Z,11.52
2022-09-26T17:51:24.158Z,8.40
2022-09-26T17:53:52.731Z,15.57
2022-09-26T17:56:20.041Z,10.13
2022-09-26T17:58:47.384Z,7.28
2022-09-26T18:01:14.662Z,9.50
2022-09-26T18:03:41.975Z,8.65
2022-09-26T18:06:09.197Z,8.77
2022-09-26T18:08:36.698Z,6.25
2022-09-26T18:11:03.898Z,5.35
2022-09-26T18:13:31.665Z,5.70
2022-09-26T18:15:58.977Z,13.50
2022-09-26T18:18:27.837Z,8.43
2022-09-26T18:20:59.069Z,9.50
2022-09-26T18:23:26.322Z,9.13
2022-09-26T18:25:53.516Z,7.20
2022-09-26T18:28:21.012Z,8.48
2022-09-26T18:30:48.382Z,11.65
2022-09-26T18:33:15.744Z,9.57
2022-09-26T18:35:45.577Z,9.23
2022-09-26T18:38:15.802Z,8.57
2022-09-26T18:40:43.501Z,9.57
2022-09-26T18:43:11.349Z,5.05
2022-09-26T18:45:38.645Z,8.77
2022-09-26T18:48:07.630Z,7.65
2022-09-26T18:50:36.175Z,8.32
2022-09-26T18:53:03.408Z,14.77
2022-09-26T18:55:50.495Z,8.75
2022-09-26T18:58:23.967Z,13.57
2022-09-26T19:00:54.556Z,5.97
2022-09-26T19:03:22.382Z,11.80
2022-09-26T19:05:49.704Z,9.55
2022-09-26T19:08:18.538Z,7.53
2022-09-26T19:10:45.758Z,10.30
2022-09-26T19:13:13.089Z,10.60
2022-09-26T19:15:40.343Z,10.75
2022-09-26T19:18:07.602Z,7.30
2022-09-26T19:20:36.040Z,13.07
2022-09-26T19:23:03.353Z,13.68
2022-09-26T19:25:30.876Z,7.30
2022-09-26T19:27:58.102Z,7.72
2022-09-26T19:30:25.507Z,13.18
2022-09-26T19:32:52.883Z,14.27
2022-09-26T19:35:20.118Z,9.02
2022-09-26T19:37:47.773Z,11.73
2022-09-26T19:40:15.422Z,11.13
2022-09-26T19:42:42.842Z,11.98
2022-09-26T19:45:10.162Z,10.93
2022-09-26T19:47:37.393Z,5.60
2022-09-26T19:50:04.655Z,5.90
2022-09-26T19:52:32.131Z,11.05
2022-09-26T19:54:59.325Z,10.48
2022-09-26T19:57:27.000Z,10.35
2022-09-26T19:59:54.328Z,8.43
2022-09-26T20:02:21.684Z,9.45
2022-09-26T20:04:49.095Z,6.13
2022-09-26T20:07:16.552Z,7.75
2022-09-26T20:09:43.944Z,7.70
2022-09-26T20:12:11.166Z,7.45
2022-09-26T20:14:38.562Z,8.70
2022-09-26T20:17:05.851Z,8.23
2022-09-26T20:19:33.328Z,9.20
2022-09-26T20:22:02.062Z,6.47
2022-09-26T20:24:29.498Z,7.82
2022-09-26T20:26:56.684Z,5.50
2022-09-26T20:29:26.313Z,12.68
2022-09-26T20:31:54.125Z,8.38
2022-09-26T20:34:21.916Z,8.27
2022-09-26T20:36:49.297Z,6.70
2022-09-26T20:39:16.721Z,7.43
2022-09-26T20:41:44.046Z,7.20
2022-09-26T20:44:11.686Z,4.35
2022-09-26T20:46:39.138Z,5.70
2022-09-26T20:49:06.518Z,6.43
2022-09-26T20:51:36.823Z,10.70
2022-09-26T20:54:04.171Z,8.75
2022-09-26T20:56:31.373Z,7.22
2022-09-26T20:58:59.002Z,3.97
2022-09-26T21:01:26.549Z,9.52
2022-09-26T21:03:55.232Z,10.23
2022-09-26T21:06:22.481Z,8.98
2022-09-26T21:08:49.759Z,7.10
2022-09-26T21:11:16.905Z,6.15
2022-09-26T21:13:44.199Z,6.45
2022-09-26T21:16:11.380Z,5.05
2022-09-26T21:18:38.719Z,15.80
2022-09-26T21:21:05.889Z,6.25
2022-09-26T21:23:49.285Z,6.32
2022-09-26T21:26:16.541Z,4.63
2022-09-26T21:28:43.746Z,6.47
2022-09-26T21:31:11.096Z,5.78
2022-09-26T21:33:38.309Z,4.55
2022-09-26T21:36:05.550Z,3.95
2022-09-26T21:38:32.828Z,3.38
2022-09-26T21:41:00.134Z,4.88
2022-09-26T21:43:27.451Z,3.95
2022-09-26T21:45:54.821Z,5.40
2022-09-26T21:48:22.133Z,10.68
2022-09-26T21:50:52.878Z,3.35
2022-09-26T21:53:22.652Z,3.80
2022-09-26T21:55:49.853Z,4.97
2022-09-26T21:58:17.089Z,5.85
2022-09-26T22:00:44.399Z,4.30
2022-09-26T22:03:11.778Z,4.43
2022-09-26T22:05:38.961Z,2.28
2022-09-26T22:08:06.282Z,6.70
2022-09-26T22:10:33.552Z,5.90
2022-09-26T22:13:00.863Z,1.90
2022-09-26T22:15:28.302Z,5.28
2022-09-26T22:17:55.556Z,3.72
2022-09-26T22:20:22.746Z,4.50
2022-09-26T22:22:50.157Z,7.25
2022-09-26T22:25:17.405Z,11.60
2022-09-26T22:27:45.105Z,3.13
2022-09-26T22:30:12.919Z,2.40
2022-09-26T22:32:40.224Z,2.58
2022-09-26T22:35:09.914Z,4.28
2022-09-26T22:37:39.286Z,5.75
2022-09-26T22:40:06.685Z,9.23
2022-09-26T22:42:33.969Z,7.40
2022-09-26T22:45:01.205Z,5.70
2022-09-26T22:47:28.412Z,7.68
2022-09-26T22:49:57.528Z,5.00
2022-09-26T22:52:24.833Z,6.72
2022-09-26T22:54:52.151Z,3.92
2022-09-26T22:57:19.509Z,6.40
2022-09-26T22:59:46.779Z,3.05
2022-09-26T23:02:14.182Z,3.22
2022-09-26T23:04:47.677Z,6.03
2022-09-26T23:07:17.803Z,7.22
2022-09-26T23:09:45.123Z,9.55
2022-09-26T23:12:12.766Z,5.15
2022-09-26T23:14:40.119Z,5.40
2022-09-26T23:17:07.382Z,4.55
2022-09-26T23:19:34.781Z,7.68
2022-09-26T23:22:02.129Z,5.88
2022-09-26T23:24:30.702Z,8.35
2022-09-26T23:26:58.398Z,6.05
2022-09-26T23:29:28.757Z,3.28
2022-09-26T23:31:56.072Z,5.53
2022-09-26T23:34:23.266Z,3.90
2022-09-26T23:36:50.508Z,8.65
2022-09-26T23:39:17.791Z,4.45
2022-09-26T23:41:45.164Z,6.97
2022-09-26T23:44:12.467Z,7.18
2022-09-26T23:46:40.165Z,2.90
2022-09-26T23:49:07.427Z,13.13
2022-09-26T23:51:34.945Z,8.00
2022-09-26T23:54:02.795Z,4.43
2022-09-26T23:56:30.109Z,5.50
2022-09-26T23:58:57.578Z,3.17
